sensor_id;sensor_type;location;lat;lon;timestamp;P1;durP1;ratioP1;P2;durP2;ratioP2
50591;SDS011;36548;50.506;30.834;2022-12-07T00:57:44;11.06;;;8.62;;
50591;SDS011;36548;50.506;30.834;2022-12-07T00:59:00;11.78;;;7.35;;
50591;SDS011;36548;50.506;30.834;2022-12-07T01:00:13;14.15;;;8.20;;
50591;SDS011;36548;50.506;30.834;2022-12-07T01:01:22;9.58;;;7.40;;
50591;SDS011;36548;50.506;30.834;2022-12-07T01:02:34;11.90;;;8.37;;
50591;SDS011;36548;50.506;30.834;2022-12-07T01:03:43;14.97;;;7.48;;
50591;SDS011;36548;50.506;30.834;2022-12-07T01:04:53;11.53;;;7.50;;
50591;SDS011;36548;50.506;30.834;2022-12-07T01:06:01;11.17;;;7.68;;
50591;SDS011;36548;50.506;30.834;2022-12-07T01:07:12;10.30;;;7.23;;
50591;SDS011;36548;50.506;30.834;2022-12-07T01:08:22;8.44;;;6.72;;
50591;SDS011;36548;50.506;30.834;2022-12-07T01:09:32;10.40;;;7.53;;
50591;SDS011;36548;50.506;30.834;2022-12-07T01:10:41;9.32;;;7.72;;
50591;SDS011;36548;50.506;30.834;2022-12-07T01:11:50;11.87;;;7.43;;
50591;SDS011;36548;50.506;30.834;2022-12-07T01:12:59;11.67;;;7.78;;
50591;SDS011;36548;50.506;30.834;2022-12-07T01:14:08;9.33;;;7.50;;
50591;SDS011;36548;50.506;30.834;2022-12-07T01:15:18;12.77;;;7.42;;
50591;SDS011;36548;50.506;30.834;2022-12-07T01:16:29;10.30;;;7.70;;
50591;SDS011;36548;50.506;30.834;2022-12-07T01:17:39;11.72;;;7.78;;
50591;SDS011;36548;50.506;30.834;2022-12-07T01:18:55;10.58;;;7.55;;
50591;SDS011;36548;50.506;30.834;2022-12-07T01:20:06;11.10;;;7.35;;
50591;SDS011;36548;50.506;30.834;2022-12-07T01:21:16;12.37;;;7.53;;
50591;SDS011;36548;50.506;30.834;2022-12-07T01:22:30;12.07;;;7.33;;
50591;SDS011;36548;50.506;30.834;2022-12-07T01:23:40;11.34;;;7.44;;
50591;SDS011;36548;50.506;30.834;2022-12-07T01:24:50;10.73;;;7.52;;
50591;SDS011;36548;50.506;30.834;2022-12-07T01:26:02;11.90;;;7.42;;
50591;SDS011;36548;50.506;30.834;2022-12-07T01:27:14;14.30;;;7.43;;
50591;SDS011;36548;50.506;30.834;2022-12-07T01:28:23;10.80;;;7.58;;
50591;SDS011;36548;50.506;30.834;2022-12-07T01:29:32;10.28;;;7.93;;
50591;SDS011;36548;50.506;30.834;2022-12-07T01:30:44;11.00;;;7.73;;
50591;SDS011;36548;50.506;30.834;2022-12-07T01:33:03;10.28;;;7.72;;
50591;SDS011;36548;50.506;30.834;2022-12-07T01:34:12;10.12;;;7.00;;
50591;SDS011;36548;50.506;30.834;2022-12-07T01:35:21;11.68;;;7.95;;
50591;SDS011;36548;50.506;30.834;2022-12-07T01:36:31;13.37;;;7.68;;
50591;SDS011;36548;50.506;30.834;2022-12-07T01:38:08;12.03;;;7.58;;
50591;SDS011;36548;50.506;30.834;2022-12-07T01:39:17;8.18;;;6.62;;
50591;SDS011;36548;50.506;30.834;2022-12-07T01:40:25;9.70;;;7.40;;
50591;SDS011;36548;50.506;30.834;2022-12-07T01:41:36;13.02;;;7.97;;
50591;SDS011;36548;50.506;30.834;2022-12-07T01:42:51;10.15;;;7.45;;
50591;SDS011;36548;50.506;30.834;2022-12-07T01:46:56;11.80;;;7.82;;
50591;SDS011;36548;50.506;30.834;2022-12-07T01:48:07;12.60;;;7.40;;
50591;SDS011;36548;50.506;30.834;2022-12-07T01:49:37;11.37;;;7.58;;
50591;SDS011;36548;50.506;30.834;2022-12-07T01:50:51;12.00;;;8.45;;
50591;SDS011;36548;50.506;30.834;2022-12-07T01:52:07;11.50;;;7.67;;
50591;SDS011;36548;50.506;30.834;2022-12-07T01:53:24;12.47;;;7.35;;
50591;SDS011;36548;50.506;30.834;2022-12-07T01:55:54;11.88;;;7.90;;
50591;SDS011;36548;50.506;30.834;2022-12-07T01:57:04;10.18;;;7.67;;
50591;SDS011;36548;50.506;30.834;2022-12-07T01:58:18;10.58;;;7.38;;
50591;SDS011;36548;50.506;30.834;2022-12-07T01:59:28;11.73;;;7.62;;
50591;SDS011;36548;50.506;30.834;2022-12-07T02:00:37;11.20;;;8.80;;
50591;SDS011;36548;50.506;30.834;2022-12-07T02:04:12;12.00;;;7.87;;
50591;SDS011;36548;50.506;30.834;2022-12-07T02:05:21;11.08;;;6.53;;
50591;SDS011;36548;50.506;30.834;2022-12-07T02:06:34;9.17;;;7.17;;
50591;SDS011;36548;50.506;30.834;2022-12-07T02:07:47;10.18;;;7.68;;
50591;SDS011;36548;50.506;30.834;2022-12-07T02:08:58;10.93;;;8.70;;
50591;SDS011;36548;50.506;30.834;2022-12-07T02:11:32;10.50;;;6.93;;
50591;SDS011;36548;50.506;30.834;2022-12-07T06:23:53;12.52;;;7.46;;
50591;SDS011;36548;50.506;30.834;2022-12-07T06:25:03;10.40;;;7.05;;
50591;SDS011;36548;50.506;30.834;2022-12-07T06:26:15;12.65;;;6.08;;
50591;SDS011;36548;50.506;30.834;2022-12-07T06:27:25;14.45;;;5.75;;
50591;SDS011;36548;50.506;30.834;2022-12-07T06:28:34;12.53;;;7.45;;
50591;SDS011;36548;50.506;30.834;2022-12-07T06:29:43;9.35;;;6.03;;
50591;SDS011;36548;50.506;30.834;2022-12-07T06:30:58;10.82;;;6.13;;
50591;SDS011;36548;50.506;30.834;2022-12-07T06:32:08;12.38;;;6.67;;
50591;SDS011;36548;50.506;30.834;2022-12-07T06:33:23;11.27;;;6.35;;
50591;SDS011;36548;50.506;30.834;2022-12-07T06:34:33;8.32;;;5.60;;
50591;SDS011;36548;50.506;30.834;2022-12-07T06:35:42;13.02;;;6.90;;
50591;SDS011;36548;50.506;30.834;2022-12-07T06:36:52;8.30;;;5.23;;
50591;SDS011;36548;50.506;30.834;2022-12-07T06:39:11;10.47;;;5.55;;
50591;SDS011;36548;50.506;30.834;2022-12-07T06:40:22;6.52;;;5.03;;
50591;SDS011;36548;50.506;30.834;2022-12-07T06:41:31;9.22;;;5.10;;
50591;SDS011;36548;50.506;30.834;2022-12-07T06:42:41;7.30;;;5.28;;
50591;SDS011;36548;50.506;30.834;2022-12-07T06:43:49;8.78;;;6.18;;
50591;SDS011;36548;50.506;30.834;2022-12-07T06:45:03;11.12;;;6.66;;
50591;SDS011;36548;50.506;30.834;2022-12-07T06:46:13;7.10;;;4.38;;
50591;SDS011;36548;50.506;30.834;2022-12-07T06:47:23;12.77;;;6.27;;
50591;SDS011;36548;50.506;30.834;2022-12-07T06:48:34;9.40;;;5.75;;
50591;SDS011;36548;50.506;30.834;2022-12-07T06:49:49;8.43;;;5.17;;
50591;SDS011;36548;50.506;30.834;2022-12-07T06:51:00;10.03;;;6.45;;
50591;SDS011;36548;50.506;30.834;2022-12-07T06:52:08;9.02;;;6.07;;
50591;SDS011;36548;50.506;30.834;2022-12-07T06:53:17;8.48;;;5.57;;
50591;SDS011;36548;50.506;30.834;2022-12-07T06:54:28;11.20;;;6.50;;
50591;SDS011;36548;50.506;30.834;2022-12-07T06:55:38;9.87;;;6.32;;
50591;SDS011;36548;50.506;30.834;2022-12-07T06:56:49;12.93;;;6.90;;
50591;SDS011;36548;50.506;30.834;2022-12-07T06:57:59;12.00;;;6.67;;
50591;SDS011;36548;50.506;30.834;2022-12-07T06:59:10;11.65;;;7.27;;
50591;SDS011;36548;50.506;30.834;2022-12-07T07:00:21;9.62;;;7.46;;
50591;SDS011;36548;50.506;30.834;2022-12-07T07:01:31;11.80;;;7.30;;
50591;SDS011;36548;50.506;30.834;2022-12-07T07:02:41;11.12;;;8.00;;
50591;SDS011;36548;50.506;30.834;2022-12-07T07:03:50;12.05;;;7.82;;
50591;SDS011;36548;50.506;30.834;2022-12-07T07:04:59;14.47;;;8.68;;
50591;SDS011;36548;50.506;30.834;2022-12-07T07:06:10;12.97;;;7.57;;
50591;SDS011;36548;50.506;30.834;2022-12-07T07:07:21;14.97;;;9.02;;
50591;SDS011;36548;50.506;30.834;2022-12-07T07:08:30;10.48;;;7.80;;
50591;SDS011;36548;50.506;30.834;2022-12-07T07:09:39;13.32;;;8.20;;
50591;SDS011;36548;50.506;30.834;2022-12-07T07:10:49;12.63;;;7.98;;
50591;SDS011;36548;50.506;30.834;2022-12-07T07:12:05;11.42;;;7.68;;
50591;SDS011;36548;50.506;30.834;2022-12-07T07:13:13;10.13;;;6.70;;
50591;SDS011;36548;50.506;30.834;2022-12-07T07:14:22;12.35;;;6.28;;
50591;SDS011;36548;50.506;30.834;2022-12-07T07:15:31;9.70;;;6.40;;
50591;SDS011;36548;50.506;30.834;2022-12-07T07:16:41;10.07;;;5.40;;
50591;SDS011;36548;50.506;30.834;2022-12-07T07:17:50;7.28;;;6.07;;
50591;SDS011;36548;50.506;30.834;2022-12-07T07:19:05;8.08;;;5.42;;
50591;SDS011;36548;50.506;30.834;2022-12-07T07:20:15;8.75;;;5.70;;
50591;SDS011;36548;50.506;30.834;2022-12-07T07:21:25;8.00;;;4.97;;
50591;SDS011;36548;50.506;30.834;2022-12-07T07:22:35;7.73;;;5.20;;
50591;SDS011;36548;50.506;30.834;2022-12-07T07:23:44;10.68;;;6.93;;
50591;SDS011;36548;50.506;30.834;2022-12-07T07:24:52;8.75;;;5.82;;
50591;SDS011;36548;50.506;30.834;2022-12-07T07:26:01;7.10;;;5.55;;
50591;SDS011;36548;50.506;30.834;2022-12-07T07:27:10;7.63;;;4.72;;
50591;SDS011;36548;50.506;30.834;2022-12-07T07:28:18;13.55;;;7.55;;
50591;SDS011;36548;50.506;30.834;2022-12-07T07:29:27;13.48;;;7.40;;
50591;SDS011;36548;50.506;30.834;2022-12-07T07:30:37;12.05;;;7.55;;
50591;SDS011;36548;50.506;30.834;2022-12-07T07:31:48;9.00;;;6.50;;
50591;SDS011;36548;50.506;30.834;2022-12-07T07:32:57;10.20;;;7.15;;
50591;SDS011;36548;50.506;30.834;2022-12-07T07:34:08;12.22;;;7.97;;
50591;SDS011;36548;50.506;30.834;2022-12-07T07:35:16;11.43;;;7.55;;
50591;SDS011;36548;50.506;30.834;2022-12-07T07:36:26;9.68;;;7.25;;
50591;SDS011;36548;50.506;30.834;2022-12-07T07:38:45;13.95;;;7.35;;
50591;SDS011;36548;50.506;30.834;2022-12-07T07:39:54;9.33;;;6.68;;
50591;SDS011;36548;50.506;30.834;2022-12-07T07:41:04;12.62;;;7.40;;
50591;SDS011;36548;50.506;30.834;2022-12-07T07:42:12;7.33;;;6.07;;
50591;SDS011;36548;50.506;30.834;2022-12-07T07:43:21;8.87;;;5.83;;
50591;SDS011;36548;50.506;30.834;2022-12-07T07:44:30;9.05;;;5.93;;
50591;SDS011;36548;50.506;30.834;2022-12-07T07:45:41;11.60;;;7.43;;
50591;SDS011;36548;50.506;30.834;2022-12-07T07:46:50;19.02;;;13.28;;
50591;SDS011;36548;50.506;30.834;2022-12-07T07:47:59;13.02;;;9.12;;
50591;SDS011;36548;50.506;30.834;2022-12-07T07:49:09;10.62;;;7.93;;
50591;SDS011;36548;50.506;30.834;2022-12-07T07:50:19;14.53;;;6.40;;
50591;SDS011;36548;50.506;30.834;2022-12-07T07:51:29;10.98;;;7.18;;
50591;SDS011;36548;50.506;30.834;2022-12-07T07:52:38;10.68;;;6.75;;
50591;SDS011;36548;50.506;30.834;2022-12-07T07:53:46;11.27;;;7.23;;
50591;SDS011;36548;50.506;30.834;2022-12-07T07:54:56;8.18;;;5.88;;
50591;SDS011;36548;50.506;30.834;2022-12-07T07:56:05;9.40;;;6.02;;
50591;SDS011;36548;50.506;30.834;2022-12-07T07:57:13;12.25;;;7.53;;
50591;SDS011;36548;50.506;30.834;2022-12-07T07:58:24;10.60;;;7.95;;
50591;SDS011;36548;50.506;30.834;2022-12-07T07:59:34;11.72;;;8.35;;
50591;SDS011;36548;50.506;30.834;2022-12-07T08:00:43;11.40;;;7.65;;
50591;SDS011;36548;50.506;30.834;2022-12-07T08:01:51;10.07;;;7.33;;
50591;SDS011;36548;50.506;30.834;2022-12-07T08:03:00;11.88;;;7.70;;
50591;SDS011;36548;50.506;30.834;2022-12-07T08:04:09;9.48;;;7.02;;
50591;SDS011;36548;50.506;30.834;2022-12-07T08:05:18;12.83;;;8.57;;
50591;SDS011;36548;50.506;30.834;2022-12-07T08:06:27;15.67;;;9.33;;
50591;SDS011;36548;50.506;30.834;2022-12-07T08:07:38;11.98;;;7.75;;
50591;SDS011;36548;50.506;30.834;2022-12-07T08:08:48;10.25;;;7.15;;
50591;SDS011;36548;50.506;30.834;2022-12-07T08:09:58;11.85;;;7.90;;
50591;SDS011;36548;50.506;30.834;2022-12-07T08:11:09;10.57;;;7.88;;
50591;SDS011;36548;50.506;30.834;2022-12-07T08:12:19;13.30;;;7.40;;
50591;SDS011;36548;50.506;30.834;2022-12-07T08:13:29;10.80;;;6.65;;
50591;SDS011;36548;50.506;30.834;2022-12-07T08:14:39;8.47;;;6.37;;
50591;SDS011;36548;50.506;30.834;2022-12-07T08:16:09;11.10;;;6.90;;
50591;SDS011;36548;50.506;30.834;2022-12-07T08:17:20;10.97;;;5.95;;
50591;SDS011;36548;50.506;30.834;2022-12-07T08:18:36;9.35;;;6.07;;
50591;SDS011;36548;50.506;30.834;2022-12-07T08:19:46;11.68;;;8.00;;
50591;SDS011;36548;50.506;30.834;2022-12-07T08:22:16;8.80;;;6.68;;
50591;SDS011;36548;50.506;30.834;2022-12-07T08:24:38;11.47;;;8.40;;
50591;SDS011;36548;50.506;30.834;2022-12-07T08:25:49;10.32;;;7.53;;
50591;SDS011;36548;50.506;30.834;2022-12-07T08:26:58;11.32;;;7.55;;
50591;SDS011;36548;50.506;30.834;2022-12-07T08:28:06;10.45;;;7.18;;
50591;SDS011;36548;50.506;30.834;2022-12-07T08:29:15;11.58;;;7.77;;
50591;SDS011;36548;50.506;30.834;2022-12-07T08:30:25;12.30;;;8.47;;
50591;SDS011;36548;50.506;30.834;2022-12-07T08:31:36;10.72;;;8.53;;
50591;SDS011;36548;50.506;30.834;2022-12-07T08:33:55;15.38;;;9.48;;
50591;SDS011;36548;50.506;30.834;2022-12-07T08:35:12;9.93;;;7.40;;
50591;SDS011;36548;50.506;30.834;2022-12-07T08:36:21;10.07;;;8.00;;
50591;SDS011;36548;50.506;30.834;2022-12-07T08:37:31;10.90;;;8.15;;
50591;SDS011;36548;50.506;30.834;2022-12-07T08:38:40;10.77;;;7.40;;
50591;SDS011;36548;50.506;30.834;2022-12-07T08:39:52;11.10;;;7.80;;
50591;SDS011;36548;50.506;30.834;2022-12-07T08:41:01;9.40;;;7.10;;
50591;SDS011;36548;50.506;30.834;2022-12-07T08:42:10;12.58;;;7.10;;
50591;SDS011;36548;50.506;30.834;2022-12-07T08:43:19;8.56;;;5.36;;
50591;SDS011;36548;50.506;30.834;2022-12-07T08:45:43;11.62;;;7.45;;
50591;SDS011;36548;50.506;30.834;2022-12-07T08:46:59;10.28;;;7.48;;
50591;SDS011;36548;50.506;30.834;2022-12-07T08:48:11;10.77;;;7.60;;
50591;SDS011;36548;50.506;30.834;2022-12-07T08:49:31;8.98;;;6.32;;
50591;SDS011;36548;50.506;30.834;2022-12-07T08:50:37;10.82;;;6.00;;
50591;SDS011;36548;50.506;30.834;2022-12-07T08:51:52;9.77;;;7.73;;
50591;SDS011;36548;50.506;30.834;2022-12-07T08:53:03;11.40;;;6.65;;
50591;SDS011;36548;50.506;30.834;2022-12-07T08:55:25;15.82;;;8.80;;
50591;SDS011;36548;50.506;30.834;2022-12-07T08:56:38;12.22;;;9.08;;
50591;SDS011;36548;50.506;30.834;2022-12-07T08:57:48;11.28;;;8.13;;
50591;SDS011;36548;50.506;30.834;2022-12-07T08:58:58;14.18;;;9.38;;
50591;SDS011;36548;50.506;30.834;2022-12-07T09:00:09;10.75;;;7.97;;
50591;SDS011;36548;50.506;30.834;2022-12-07T09:01:25;11.23;;;7.82;;
50591;SDS011;36548;50.506;30.834;2022-12-07T09:02:35;13.30;;;9.45;;
50591;SDS011;36548;50.506;30.834;2022-12-07T09:03:45;13.40;;;8.80;;
50591;SDS011;36548;50.506;30.834;2022-12-07T09:04:55;15.20;;;10.60;;
50591;SDS011;36548;50.506;30.834;2022-12-07T09:06:04;14.17;;;9.37;;
50591;SDS011;36548;50.506;30.834;2022-12-07T09:08:25;10.03;;;8.57;;
50591;SDS011;36548;50.506;30.834;2022-12-07T09:09:42;13.10;;;8.72;;
50591;SDS011;36548;50.506;30.834;2022-12-07T09:10:52;13.58;;;7.62;;
50591;SDS011;36548;50.506;30.834;2022-12-07T09:12:01;10.23;;;7.23;;
50591;SDS011;36548;50.506;30.834;2022-12-07T09:13:10;13.88;;;9.50;;
50591;SDS011;36548;50.506;30.834;2022-12-07T09:14:19;10.60;;;7.25;;
50591;SDS011;36548;50.506;30.834;2022-12-07T09:15:29;12.65;;;7.43;;
50591;SDS011;36548;50.506;30.834;2022-12-07T09:16:39;10.25;;;7.00;;
50591;SDS011;36548;50.506;30.834;2022-12-07T09:17:49;9.58;;;7.32;;
50591;SDS011;36548;50.506;30.834;2022-12-07T09:19:10;13.40;;;8.26;;
50591;SDS011;36548;50.506;30.834;2022-12-07T09:20:20;12.55;;;8.05;;
50591;SDS011;36548;50.506;30.834;2022-12-07T09:21:32;8.20;;;6.73;;
50591;SDS011;36548;50.506;30.834;2022-12-07T09:22:42;12.10;;;7.00;;
50591;SDS011;36548;50.506;30.834;2022-12-07T09:23:51;9.83;;;7.30;;
50591;SDS011;36548;50.506;30.834;2022-12-07T09:25:00;10.28;;;7.63;;
50591;SDS011;36548;50.506;30.834;2022-12-07T09:26:10;9.32;;;7.98;;
50591;SDS011;36548;50.506;30.834;2022-12-07T09:27:19;12.07;;;8.12;;
50591;SDS011;36548;50.506;30.834;2022-12-07T09:28:35;11.50;;;6.65;;
50591;SDS011;36548;50.506;30.834;2022-12-07T09:29:44;11.20;;;6.85;;
50591;SDS011;36548;50.506;30.834;2022-12-07T09:30:53;14.95;;;8.25;;
50591;SDS011;36548;50.506;30.834;2022-12-07T09:32:04;15.43;;;9.03;;
50591;SDS011;36548;50.506;30.834;2022-12-07T09:33:15;13.93;;;8.85;;
50591;SDS011;36548;50.506;30.834;2022-12-07T09:34:25;13.10;;;8.88;;
50591;SDS011;36548;50.506;30.834;2022-12-07T09:35:34;13.10;;;9.70;;
50591;SDS011;36548;50.506;30.834;2022-12-07T09:36:44;14.52;;;8.27;;
50591;SDS011;36548;50.506;30.834;2022-12-07T09:37:54;14.35;;;8.65;;
50591;SDS011;36548;50.506;30.834;2022-12-07T09:39:03;12.52;;;9.60;;
50591;SDS011;36548;50.506;30.834;2022-12-07T09:40:14;14.25;;;10.93;;
50591;SDS011;36548;50.506;30.834;2022-12-07T09:42:37;14.83;;;8.72;;
50591;SDS011;36548;50.506;30.834;2022-12-07T09:44:03;11.25;;;8.63;;
50591;SDS011;36548;50.506;30.834;2022-12-07T09:45:15;12.28;;;8.65;;
50591;SDS011;36548;50.506;30.834;2022-12-07T09:46:37;10.80;;;9.00;;
50591;SDS011;36548;50.506;30.834;2022-12-07T09:47:49;12.17;;;9.17;;
50591;SDS011;36548;50.506;30.834;2022-12-07T09:48:58;12.25;;;8.77;;
50591;SDS011;36548;50.506;30.834;2022-12-07T09:51:31;13.87;;;9.20;;
50591;SDS011;36548;50.506;30.834;2022-12-07T09:52:41;9.58;;;7.75;;
50591;SDS011;36548;50.506;30.834;2022-12-07T09:53:54;11.18;;;7.50;;
50591;SDS011;36548;50.506;30.834;2022-12-07T09:55:09;11.82;;;8.25;;
50591;SDS011;36548;50.506;30.834;2022-12-07T09:56:21;11.82;;;8.45;;
50591;SDS011;36548;50.506;30.834;2022-12-07T09:57:38;15.42;;;8.82;;
50591;SDS011;36548;50.506;30.834;2022-12-07T09:58:48;11.95;;;8.13;;
50591;SDS011;36548;50.506;30.834;2022-12-07T09:59:59;10.95;;;8.62;;
50591;SDS011;36548;50.506;30.834;2022-12-07T10:01:14;11.85;;;8.05;;
50591;SDS011;36548;50.506;30.834;2022-12-07T10:02:34;13.15;;;8.82;;
50591;SDS011;36548;50.506;30.834;2022-12-07T10:03:48;16.12;;;10.70;;
50591;SDS011;36548;50.506;30.834;2022-12-07T10:05:00;13.93;;;10.07;;
50591;SDS011;36548;50.506;30.834;2022-12-07T14:11:54;28.43;;;24.38;;
50591;SDS011;36548;50.506;30.834;2022-12-07T14:13:24;31.35;;;24.97;;
50591;SDS011;36548;50.506;30.834;2022-12-07T14:14:37;30.56;;;24.06;;
50591;SDS011;36548;50.506;30.834;2022-12-07T14:15:49;23.30;;;19.30;;
50591;SDS011;36548;50.506;30.834;2022-12-07T14:18:36;18.55;;;15.58;;
50591;SDS011;36548;50.506;30.834;2022-12-07T14:22:34;17.20;;;12.10;;
50591;SDS011;36548;50.506;30.834;2022-12-07T14:23:45;15.87;;;11.98;;
50591;SDS011;36548;50.506;30.834;2022-12-07T14:24:59;17.03;;;13.20;;
50591;SDS011;36548;50.506;30.834;2022-12-07T14:26:20;12.85;;;9.73;;
50591;SDS011;36548;50.506;30.834;2022-12-07T14:27:31;14.62;;;11.63;;
50591;SDS011;36548;50.506;30.834;2022-12-07T14:28:45;13.83;;;11.60;;
50591;SDS011;36548;50.506;30.834;2022-12-07T14:30:02;15.32;;;11.90;;
50591;SDS011;36548;50.506;30.834;2022-12-07T14:31:18;16.53;;;11.73;;
50591;SDS011;36548;50.506;30.834;2022-12-07T14:32:36;15.72;;;11.68;;
50591;SDS011;36548;50.506;30.834;2022-12-07T14:33:47;16.32;;;12.03;;
50591;SDS011;36548;50.506;30.834;2022-12-07T14:35:00;13.20;;;10.65;;
50591;SDS011;36548;50.506;30.834;2022-12-07T14:36:18;15.78;;;12.43;;
50591;SDS011;36548;50.506;30.834;2022-12-07T14:37:27;17.73;;;12.93;;
50591;SDS011;36548;50.506;30.834;2022-12-07T14:39:47;14.05;;;12.27;;
50591;SDS011;36548;50.506;30.834;2022-12-07T14:40:55;15.90;;;12.75;;
50591;SDS011;36548;50.506;30.834;2022-12-07T14:42:10;13.42;;;10.15;;
50591;SDS011;36548;50.506;30.834;2022-12-07T14:43:25;13.73;;;9.83;;
50591;SDS011;36548;50.506;30.834;2022-12-07T14:44:36;15.13;;;11.83;;
50591;SDS011;36548;50.506;30.834;2022-12-07T14:46:55;18.23;;;13.07;;
50591;SDS011;36548;50.506;30.834;2022-12-07T14:48:06;18.48;;;11.57;;
50591;SDS011;36548;50.506;30.834;2022-12-07T14:49:23;15.63;;;12.45;;
50591;SDS011;36548;50.506;30.834;2022-12-07T14:50:37;13.80;;;9.82;;
50591;SDS011;36548;50.506;30.834;2022-12-07T14:51:49;16.83;;;12.32;;
50591;SDS011;36548;50.506;30.834;2022-12-07T14:53:10;17.35;;;12.75;;
50591;SDS011;36548;50.506;30.834;2022-12-07T14:54:17;15.67;;;12.45;;
50591;SDS011;36548;50.506;30.834;2022-12-07T14:55:27;16.55;;;13.07;;
50591;SDS011;36548;50.506;30.834;2022-12-07T14:56:38;16.77;;;13.60;;
50591;SDS011;36548;50.506;30.834;2022-12-07T14:57:47;17.20;;;14.10;;
50591;SDS011;36548;50.506;30.834;2022-12-07T14:58:55;19.05;;;13.63;;
50591;SDS011;36548;50.506;30.834;2022-12-07T15:01:18;17.30;;;12.60;;
50591;SDS011;36548;50.506;30.834;2022-12-07T15:02:26;23.52;;;17.92;;
50591;SDS011;36548;50.506;30.834;2022-12-07T15:03:36;20.65;;;13.40;;
50591;SDS011;36548;50.506;30.834;2022-12-07T15:04:46;27.40;;;20.28;;
50591;SDS011;36548;50.506;30.834;2022-12-07T15:05:55;15.03;;;11.48;;
50591;SDS011;36548;50.506;30.834;2022-12-07T15:07:13;20.98;;;13.30;;
50591;SDS011;36548;50.506;30.834;2022-12-07T15:08:29;19.12;;;14.20;;
50591;SDS011;36548;50.506;30.834;2022-12-07T15:09:38;18.40;;;14.33;;
50591;SDS011;36548;50.506;30.834;2022-12-07T15:10:47;16.43;;;12.70;;
50591;SDS011;36548;50.506;30.834;2022-12-07T15:11:56;19.52;;;11.82;;
50591;SDS011;36548;50.506;30.834;2022-12-07T15:13:06;18.95;;;12.75;;
50591;SDS011;36548;50.506;30.834;2022-12-07T15:14:35;21.35;;;12.85;;
50591;SDS011;36548;50.506;30.834;2022-12-07T15:15:44;19.00;;;13.00;;
50591;SDS011;36548;50.506;30.834;2022-12-07T15:16:55;20.78;;;14.23;;
50591;SDS011;36548;50.506;30.834;2022-12-07T15:18:06;16.40;;;11.06;;
50591;SDS011;36548;50.506;30.834;2022-12-07T15:19:22;19.72;;;12.70;;
50591;SDS011;36548;50.506;30.834;2022-12-07T15:20:35;18.73;;;12.58;;
50591;SDS011;36548;50.506;30.834;2022-12-07T15:21:44;17.83;;;12.43;;
50591;SDS011;36548;50.506;30.834;2022-12-07T15:22:54;21.17;;;14.40;;
50591;SDS011;36548;50.506;30.834;2022-12-07T15:24:03;18.58;;;12.93;;
50591;SDS011;36548;50.506;30.834;2022-12-07T15:25:12;16.48;;;12.28;;
50591;SDS011;36548;50.506;30.834;2022-12-07T15:26:24;16.73;;;11.97;;
50591;SDS011;36548;50.506;30.834;2022-12-07T15:27:33;19.60;;;12.25;;
50591;SDS011;36548;50.506;30.834;2022-12-07T15:28:42;17.40;;;11.95;;
50591;SDS011;36548;50.506;30.834;2022-12-07T15:29:52;15.50;;;12.50;;
50591;SDS011;36548;50.506;30.834;2022-12-07T15:31:02;18.67;;;12.33;;
50591;SDS011;36548;50.506;30.834;2022-12-07T15:32:13;17.85;;;12.42;;
50591;SDS011;36548;50.506;30.834;2022-12-07T15:33:23;13.35;;;11.38;;
50591;SDS011;36548;50.506;30.834;2022-12-07T15:34:32;16.20;;;11.88;;
50591;SDS011;36548;50.506;30.834;2022-12-07T15:35:44;17.62;;;13.03;;
50591;SDS011;36548;50.506;30.834;2022-12-07T15:37:00;16.58;;;11.58;;
50591;SDS011;36548;50.506;30.834;2022-12-07T15:38:09;16.00;;;11.72;;
50591;SDS011;36548;50.506;30.834;2022-12-07T15:39:18;19.50;;;12.68;;
50591;SDS011;36548;50.506;30.834;2022-12-07T15:40:28;13.48;;;10.75;;
50591;SDS011;36548;50.506;30.834;2022-12-07T15:41:37;19.48;;;11.83;;
50591;SDS011;36548;50.506;30.834;2022-12-07T15:42:47;16.67;;;12.25;;
50591;SDS011;36548;50.506;30.834;2022-12-07T15:43:56;15.53;;;12.48;;
50591;SDS011;36548;50.506;30.834;2022-12-07T15:45:24;17.77;;;11.42;;
50591;SDS011;36548;50.506;30.834;2022-12-07T15:46:33;12.35;;;9.98;;
50591;SDS011;36548;50.506;30.834;2022-12-07T15:47:45;14.13;;;10.87;;
50591;SDS011;36548;50.506;30.834;2022-12-07T15:48:56;15.15;;;13.10;;
50591;SDS011;36548;50.506;30.834;2022-12-07T15:50:06;17.22;;;13.27;;
50591;SDS011;36548;50.506;30.834;2022-12-07T15:51:19;17.35;;;13.05;;
50591;SDS011;36548;50.506;30.834;2022-12-07T15:53:39;14.30;;;12.27;;
50591;SDS011;36548;50.506;30.834;2022-12-07T15:54:50;16.08;;;12.93;;
50591;SDS011;36548;50.506;30.834;2022-12-07T15:55:59;20.80;;;11.63;;
50591;SDS011;36548;50.506;30.834;2022-12-07T15:57:08;15.05;;;13.33;;
50591;SDS011;36548;50.506;30.834;2022-12-07T15:58:19;16.68;;;13.47;;
50591;SDS011;36548;50.506;30.834;2022-12-07T15:59:28;14.07;;;10.47;;
50591;SDS011;36548;50.506;30.834;2022-12-07T16:00:38;19.18;;;12.95;;
50591;SDS011;36548;50.506;30.834;2022-12-07T16:01:48;13.78;;;11.48;;
50591;SDS011;36548;50.506;30.834;2022-12-07T16:02:57;15.93;;;12.22;;
50591;SDS011;36548;50.506;30.834;2022-12-07T16:04:06;16.83;;;12.92;;
50591;SDS011;36548;50.506;30.834;2022-12-07T16:05:15;15.37;;;12.23;;
50591;SDS011;36548;50.506;30.834;2022-12-07T16:06:24;16.72;;;13.30;;
50591;SDS011;36548;50.506;30.834;2022-12-07T16:07:33;13.25;;;10.83;;
50591;SDS011;36548;50.506;30.834;2022-12-07T16:08:43;15.85;;;12.00;;
50591;SDS011;36548;50.506;30.834;2022-12-07T16:09:54;14.63;;;11.70;;
50591;SDS011;36548;50.506;30.834;2022-12-07T16:11:09;18.53;;;13.53;;
50591;SDS011;36548;50.506;30.834;2022-12-07T16:12:18;13.27;;;10.15;;
50591;SDS011;36548;50.506;30.834;2022-12-07T16:13:27;15.35;;;10.97;;
50591;SDS011;36548;50.506;30.834;2022-12-07T16:14:36;17.82;;;13.63;;
50591;SDS011;36548;50.506;30.834;2022-12-07T16:15:45;16.82;;;13.20;;
50591;SDS011;36548;50.506;30.834;2022-12-07T16:16:54;16.40;;;12.85;;
50591;SDS011;36548;50.506;30.834;2022-12-07T16:18:03;14.83;;;12.40;;
50591;SDS011;36548;50.506;30.834;2022-12-07T16:19:18;15.27;;;12.68;;
50591;SDS011;36548;50.506;30.834;2022-12-07T16:20:27;14.58;;;12.20;;
50591;SDS011;36548;50.506;30.834;2022-12-07T16:21:36;13.58;;;11.80;;
50591;SDS011;36548;50.506;30.834;2022-12-07T16:22:45;16.67;;;12.55;;
50591;SDS011;36548;50.506;30.834;2022-12-07T16:23:57;14.35;;;11.77;;
50591;SDS011;36548;50.506;30.834;2022-12-07T16:25:06;13.33;;;11.88;;
50591;SDS011;36548;50.506;30.834;2022-12-07T16:26:17;15.25;;;12.45;;
50591;SDS011;36548;50.506;30.834;2022-12-07T16:27:33;14.07;;;12.48;;
50591;SDS011;36548;50.506;30.834;2022-12-07T16:28:43;14.00;;;11.98;;
50591;SDS011;36548;50.506;30.834;2022-12-07T16:29:53;16.17;;;12.85;;
50591;SDS011;36548;50.506;30.834;2022-12-07T16:31:06;14.93;;;12.25;;
50591;SDS011;36548;50.506;30.834;2022-12-07T16:32:27;15.30;;;11.15;;
50591;SDS011;36548;50.506;30.834;2022-12-07T16:33:37;16.38;;;11.87;;
50591;SDS011;36548;50.506;30.834;2022-12-07T16:34:48;14.85;;;11.80;;
50591;SDS011;36548;50.506;30.834;2022-12-07T16:35:57;15.25;;;13.15;;
50591;SDS011;36548;50.506;30.834;2022-12-07T16:37:07;15.20;;;12.30;;
50591;SDS011;36548;50.506;30.834;2022-12-07T16:38:16;16.77;;;14.28;;
50591;SDS011;36548;50.506;30.834;2022-12-07T16:39:25;18.00;;;15.27;;